createdAt,value
2023-04-18T13:11:13.007Z,23.98
2023-04-18T13:13:43.470Z,24.61
2023-04-18T13:16:13.046Z,24.59
2023-04-18T13:18:42.633Z,24.18
2023-04-18T13:21:15.553Z,24.06
2023-04-18T13:23:45.410Z,24.30
2023-04-18T13:26:15.031Z,23.64
2023-04-18T13:28:44.065Z,22.90
2023-04-18T13:31:14.137Z,24.01
2023-04-18T13:33:46.232Z,24.49
2023-04-18T13:36:15.769Z,23.86
2023-04-18T13:38:46.760Z,23.67
2023-04-18T13:41:16.346Z,22.78
2023-04-18T13:43:45.576Z,23.37
2023-04-18T13:46:15.226Z,23.44
2023-04-18T13:48:44.167Z,23.47
2023-04-18T13:51:13.258Z,23.24
2023-04-18T13:53:42.749Z,22.62
2023-04-18T13:56:13.151Z,24.23
2023-04-18T13:58:42.938Z,24.56
2023-04-18T14:01:12.308Z,24.90
2023-04-18T14:03:43.695Z,24.86
2023-04-18T14:06:14.253Z,24.30
2023-04-18T14:08:43.275Z,22.29
2023-04-18T14:11:12.634Z,23.16
2023-04-18T14:13:41.913Z,22.57
2023-04-18T14:16:15.420Z,22.40
2023-04-18T14:18:47.076Z,21.68
2023-04-18T14:21:17.010Z,22.44
2023-04-18T14:23:46.962Z,22.08
2023-04-18T14:26:16.929Z,21.49
2023-04-18T14:28:55.404Z,22.47
2023-04-18T14:31:24.855Z,22.97
2023-04-18T14:34:02.691Z,23.04
2023-04-18T14:36:33.240Z,22.75
2023-04-18T14:39:02.880Z,22.35
2023-04-18T14:41:32.504Z,22.34
2023-04-18T14:44:01.992Z,22.13
2023-04-18T14:46:31.116Z,22.27
2023-04-18T14:49:00.589Z,22.11
2023-04-18T14:51:31.815Z,23.23
2023-04-18T14:54:01.509Z,23.73
2023-04-18T14:56:30.747Z,23.62
2023-04-18T14:58:59.944Z,24.78
2023-04-18T15:01:29.361Z,24.64
2023-04-18T15:04:00.044Z,25.46
2023-04-18T15:06:30.431Z,26.17
2023-04-18T15:09:00.031Z,26.19
2023-04-18T15:11:28.866Z,26.49
2023-04-18T15:13:58.855Z,26.65
2023-04-18T15:16:29.819Z,26.47
2023-04-18T15:19:01.181Z,26.61
2023-04-18T15:21:31.832Z,26.57
2023-04-18T15:24:01.914Z,27.70
2023-04-18T15:26:33.149Z,27.86
2023-04-18T15:29:05.880Z,28.15
2023-04-18T15:31:36.714Z,29.01
2023-04-18T15:34:08.613Z,28.83
2023-04-18T15:36:38.607Z,29.42
2023-04-18T15:39:09.516Z,28.92
2023-04-18T15:41:39.563Z,29.70
2023-04-18T15:44:08.766Z,30.28
2023-04-18T15:46:38.706Z,30.66
2023-04-18T15:49:08.663Z,30.81
2023-04-18T15:51:38.324Z,31.52
2023-04-18T15:54:07.721Z,32.65
2023-04-18T15:56:37.226Z,33.56
2023-04-18T15:59:07.396Z,31.83
2023-04-18T16:01:37.296Z,32.13
2023-04-18T16:04:06.661Z,32.79
2023-04-18T16:06:36.052Z,33.75
2023-04-18T16:09:07.278Z,33.85
2023-04-18T16:11:36.187Z,34.29
2023-04-18T16:14:06.435Z,34.47
2023-04-18T16:16:36.154Z,34.78
2023-04-18T16:19:06.195Z,35.47
2023-04-18T16:21:35.492Z,36.05
2023-04-18T16:24:05.557Z,36.61
2023-04-18T16:26:34.788Z,37.39
2023-04-18T16:29:04.919Z,37.46
2023-04-18T16:31:35.145Z,37.14
2023-04-18T16:34:06.810Z,36.88
2023-04-18T16:36:37.545Z,37.15
2023-04-18T16:39:09.055Z,37.72
2023-04-18T16:41:38.749Z,37.30
2023-04-18T16:44:10.664Z,37.47
2023-04-18T16:46:40.109Z,37.76
2023-04-18T16:49:09.875Z,38.05
2023-04-18T16:51:39.194Z,38.56
2023-04-18T16:54:09.269Z,38.66
2023-04-18T16:56:40.791Z,38.37
2023-04-18T16:59:11.224Z,38.32
2023-04-18T17:01:40.950Z,39.04
2023-04-18T17:04:11.551Z,39.08
2023-04-18T17:06:43.602Z,39.41
2023-04-18T17:09:15.810Z,39.81
2023-04-18T17:11:46.317Z,39.88
2023-04-18T17:14:17.196Z,40.23
2023-04-18T17:16:47.508Z,40.23
2023-04-18T17:19:20.136Z,40.39
2023-04-18T17:21:51.227Z,40.26
2023-04-18T17:24:23.247Z,40.70
2023-04-18T17:26:52.609Z,41.14
2023-04-18T17:29:24.640Z,41.65
2023-04-18T17:31:54.807Z,41.38
2023-04-18T17:34:25.041Z,41.40
2023-04-18T17:36:54.536Z,40.90
2023-04-18T17:39:25.234Z,41.15
2023-04-18T17:41:58.888Z,41.23
2023-04-18T17:44:28.791Z,41.20
2023-04-18T17:47:00.340Z,41.20
2023-04-18T17:49:36.085Z,41.42
2023-04-18T17:52:08.028Z,41.54
2023-04-18T17:54:38.191Z,41.69
2023-04-18T17:57:07.945Z,42.01
2023-04-18T17:59:38.152Z,41.87
2023-04-18T18:02:07.586Z,41.95
2023-04-18T18:04:38.723Z,42.08
2023-04-18T18:07:08.847Z,42.11
2023-04-18T18:09:39.052Z,42.49
2023-04-18T18:12:12.756Z,42.28
2023-04-18T18:14:42.157Z,42.38
2023-04-18T18:17:11.837Z,42.54
2023-04-18T18:19:42.652Z,43.00
2023-04-18T18:22:12.785Z,42.78
2023-04-18T18:24:41.986Z,42.93
2023-04-18T18:27:11.542Z,42.95
2023-04-18T18:29:40.987Z,42.84
2023-04-18T18:32:11.546Z,43.05
2023-04-18T18:34:40.493Z,43.22
2023-04-18T18:37:11.351Z,43.08
2023-04-18T18:39:41.328Z,42.99
2023-04-18T18:42:11.507Z,43.07
2023-04-18T18:44:40.701Z,43.49
2023-04-18T18:47:10.229Z,43.19
2023-04-18T18:49:39.544Z,43.16
2023-04-18T18:52:08.585Z,43.38
2023-04-18T18:54:38.559Z,43.49
2023-04-18T18:57:08.797Z,43.49
2023-04-18T18:59:38.409Z,43.84
2023-04-18T19:02:08.446Z,43.82
2023-04-18T19:04:37.980Z,44.41
2023-04-18T19:07:07.530Z,44.67
2023-04-18T19:09:37.516Z,44.25
2023-04-18T19:12:10.334Z,44.19
2023-04-18T19:14:41.241Z,44.03
2023-04-18T19:17:11.748Z,44.34
2023-04-18T19:19:42.455Z,44.16
2023-04-18T19:22:11.788Z,44.15
2023-04-18T19:24:42.295Z,44.60
2023-04-18T19:27:12.015Z,44.67
2023-04-18T19:29:41.642Z,44.85
2023-04-18T19:32:11.459Z,45.12
2023-04-18T19:34:41.783Z,45.58
2023-04-18T19:37:12.734Z,46.03
2023-04-18T19:39:42.045Z,45.68
2023-04-18T19:42:11.655Z,46.10
2023-04-18T19:44:42.247Z,46.68
2023-04-18T19:47:14.014Z,46.79
2023-04-18T19:49:44.714Z,47.02
2023-04-18T19:52:16.835Z,47.28
2023-04-18T19:54:46.980Z,47.69
2023-04-18T19:57:16.201Z,48.36
2023-04-18T19:59:46.519Z,48.47
2023-04-18T20:02:15.858Z,48.86
2023-04-18T20:04:45.379Z,48.90
2023-04-18T20:07:15.311Z,49.36
2023-04-18T20:09:45.259Z,49.35
2023-04-18T20:12:14.482Z,49.43
2023-04-18T20:14:45.593Z,49.86
2023-04-18T20:17:15.412Z,49.73
2023-04-18T20:19:44.225Z,49.97
2023-04-18T20:22:15.667Z,50.45
2023-04-18T20:24:46.691Z,51.24
2023-04-18T20:27:19.220Z,51.52
2023-04-18T20:29:49.700Z,51.47
2023-04-18T20:32:19.520Z,51.89
2023-04-18T20:34:49.884Z,51.83
2023-04-18T20:37:20.431Z,52.43
2023-04-18T20:39:50.595Z,52.34
2023-04-18T20:42:21.679Z,52.30
2023-04-18T20:44:59.250Z,52.95
2023-04-18T20:47:28.439Z,53.20
2023-04-18T20:49:58.290Z,53.79
2023-04-18T20:52:27.349Z,53.47
2023-04-18T20:54:57.289Z,53.29
2023-04-18T20:57:27.961Z,53.62
2023-04-18T20:59:58.930Z,53.39
2023-04-18T21:02:28.996Z,53.72
2023-04-18T21:05:02.812Z,53.41
2023-04-18T21:07:32.594Z,53.56
2023-04-18T21:10:03.994Z,53.68
2023-04-18T21:12:34.049Z,53.92
2023-04-18T21:15:03.136Z,54.00
2023-04-18T21:17:32.135Z,53.98
2023-04-18T21:20:01.273Z,54.27
2023-04-18T21:22:30.927Z,54.42
2023-04-18T21:25:00.076Z,54.45
2023-04-18T21:27:29.259Z,54.57
2023-04-18T21:29:58.811Z,54.49
2023-04-18T21:32:28.279Z,54.80
2023-04-18T21:34:58.221Z,54.78
2023-04-18T21:37:32.434Z,54.73
2023-04-18T21:40:02.174Z,54.81
2023-04-18T21:42:31.248Z,55.33
2023-04-18T21:45:00.227Z,55.27
2023-04-18T21:47:33.327Z,55.06
2023-04-18T21:50:04.672Z,55.35
2023-04-18T21:52:34.093Z,55.33
2023-04-18T21:55:05.451Z,55.72
2023-04-18T21:57:35.891Z,55.65
2023-04-18T22:00:08.606Z,55.83
2023-04-18T22:02:39.178Z,55.97
2023-04-18T22:05:09.760Z,55.80
2023-04-18T22:07:54.486Z,55.96
2023-04-18T22:10:27.538Z,56.16
2023-04-18T22:12:56.794Z,56.38
2023-04-18T22:15:27.378Z,55.87
2023-04-18T22:17:58.217Z,56.35
2023-04-18T22:20:29.901Z,56.59
2023-04-18T22:22:59.858Z,56.89
2023-04-18T22:25:29.833Z,57.08
2023-04-18T22:28:00.034Z,57.47
2023-04-18T22:30:29.787Z,56.87
2023-04-18T22:32:59.629Z,56.93
2023-04-18T22:35:30.321Z,57.23
2023-04-18T22:38:02.102Z,57.45
2023-04-18T22:40:32.119Z,57.75
2023-04-18T22:43:01.434Z,58.19
2023-04-18T22:45:30.568Z,58.99
2023-04-18T22:47:59.854Z,58.62
2023-04-18T22:50:30.552Z,59.19
2023-04-18T22:53:00.506Z,59.95
2023-04-18T22:55:30.307Z,59.26
2023-04-18T22:57:59.532Z,59.28
2023-04-18T23:00:29.007Z,59.12
2023-04-18T23:02:59.814Z,58.80
2023-04-18T23:05:29.797Z,59.17
2023-04-18T23:08:00.568Z,58.78
2023-04-18T23:10:32.107Z,59.14
2023-04-18T23:13:01.150Z,58.84
2023-04-18T23:15:31.117Z,59.00
2023-04-18T23:18:02.127Z,59.37
2023-04-18T23:20:32.225Z,59.66
2023-04-18T23:23:03.577Z,59.80
2023-04-18T23:25:33.977Z,60.73
2023-04-18T23:28:03.852Z,59.94
2023-04-18T23:30:37.407Z,60.16
2023-04-18T23:33:07.012Z,60.61
2023-04-18T23:35:38.197Z,60.94
2023-04-18T23:38:07.497Z,60.11
2023-04-18T23:40:37.315Z,60.26
2023-04-18T23:43:07.469Z,60.07
2023-04-18T23:45:38.045Z,61.11
2023-04-18T23:48:09.405Z,60.83
2023-04-18T23:50:50.936Z,60.11
2023-04-18T23:53:22.876Z,60.52
2023-04-18T23:55:54.036Z,59.90
2023-04-18T23:58:23.747Z,60.25
